sensor_id;sensor_type;location;lat;lon;timestamp;temperature;humidity
9446;DHT22;4761;49.490;10.908;2022-11-20T00:02:23;15.80;43.40
9446;DHT22;4761;49.490;10.908;2022-11-20T00:04:48;15.80;43.40
9446;DHT22;4761;49.490;10.908;2022-11-20T00:07:14;15.80;43.40
9446;DHT22;4761;49.490;10.908;2022-11-20T00:09:39;15.80;43.30
9446;DHT22;4761;49.490;10.908;2022-11-20T00:12:05;15.80;43.30
9446;DHT22;4761;49.490;10.908;2022-11-20T00:14:31;15.80;43.30
9446;DHT22;4761;49.490;10.908;2022-11-20T00:16:56;15.80;43.30
9446;DHT22;4761;49.490;10.908;2022-11-20T00:19:22;15.80;43.40
9446;DHT22;4761;49.490;10.908;2022-11-20T00:21:47;15.70;43.30
9446;DHT22;4761;49.490;10.908;2022-11-20T00:24:16;15.80;43.40
9446;DHT22;4761;49.490;10.908;2022-11-20T00:26:42;15.80;43.40
9446;DHT22;4761;49.490;10.908;2022-11-20T00:29:09;15.80;43.40
9446;DHT22;4761;49.490;10.908;2022-11-20T00:31:35;15.80;43.30
9446;DHT22;4761;49.490;10.908;2022-11-20T00:34:01;15.80;43.30
9446;DHT22;4761;49.490;10.908;2022-11-20T00:36:28;15.80;43.30
9446;DHT22;4761;49.490;10.908;2022-11-20T00:38:56;15.80;43.30
9446;DHT22;4761;49.490;10.908;2022-11-20T00:41:22;15.80;43.30
9446;DHT22;4761;49.490;10.908;2022-11-20T00:43:48;15.70;43.20
9446;DHT22;4761;49.490;10.908;2022-11-20T00:46:19;15.80;43.40
9446;DHT22;4761;49.490;10.908;2022-11-20T00:48:45;15.80;43.40
9446;DHT22;4761;49.490;10.908;2022-11-20T00:51:13;15.80;43.40
9446;DHT22;4761;49.490;10.908;2022-11-20T00:53:39;15.70;43.20
9446;DHT22;4761;49.490;10.908;2022-11-20T00:56:07;15.80;43.30
9446;DHT22;4761;49.490;10.908;2022-11-20T00:58:39;15.70;43.30
9446;DHT22;4761;49.490;10.908;2022-11-20T01:01:22;15.70;43.30
9446;DHT22;4761;49.490;10.908;2022-11-20T01:03:52;15.70;43.20
9446;DHT22;4761;49.490;10.908;2022-11-20T01:06:26;15.70;43.20
9446;DHT22;4761;49.490;10.908;2022-11-20T01:08:54;15.80;43.30
9446;DHT22;4761;49.490;10.908;2022-11-20T01:11:40;15.70;43.30
9446;DHT22;4761;49.490;10.908;2022-11-20T01:14:09;15.70;43.20
9446;DHT22;4761;49.490;10.908;2022-11-20T01:16:40;15.80;43.40
9446;DHT22;4761;49.490;10.908;2022-11-20T01:19:10;15.70;43.20
9446;DHT22;4761;49.490;10.908;2022-11-20T01:21:38;15.70;43.30
9446;DHT22;4761;49.490;10.908;2022-11-20T01:24:05;15.70;43.30
9446;DHT22;4761;49.490;10.908;2022-11-20T01:26:37;15.70;43.30
9446;DHT22;4761;49.490;10.908;2022-11-20T01:29:03;15.70;43.30
9446;DHT22;4761;49.490;10.908;2022-11-20T01:31:34;15.80;43.40
9446;DHT22;4761;49.490;10.908;2022-11-20T01:34:06;15.80;43.40
9446;DHT22;4761;49.490;10.908;2022-11-20T01:36:32;15.80;43.40
9446;DHT22;4761;49.490;10.908;2022-11-20T01:39:01;15.80;43.30
9446;DHT22;4761;49.490;10.908;2022-11-20T01:41:30;15.80;43.30
9446;DHT22;4761;49.490;10.908;2022-11-20T01:44:17;15.80;43.20
9446;DHT22;4761;49.490;10.908;2022-11-20T01:47:04;15.80;43.20
9446;DHT22;4761;49.490;10.908;2022-11-20T01:49:40;15.80;43.20
9446;DHT22;4761;49.490;10.908;2022-11-20T01:52:20;15.80;43.20
9446;DHT22;4761;49.490;10.908;2022-11-20T01:55:00;15.80;43.20
9446;DHT22;4761;49.490;10.908;2022-11-20T01:57:28;15.80;43.20
9446;DHT22;4761;49.490;10.908;2022-11-20T02:00:00;15.80;43.30
9446;DHT22;4761;49.490;10.908;2022-11-20T02:02:27;15.80;43.30
9446;DHT22;4761;49.490;10.908;2022-11-20T02:04:54;15.80;43.30
9446;DHT22;4761;49.490;10.908;2022-11-20T02:07:21;15.80;43.30
9446;DHT22;4761;49.490;10.908;2022-11-20T02:09:47;15.70;43.20
9446;DHT22;4761;49.490;10.908;2022-11-20T02:12:13;15.70;43.30
9446;DHT22;4761;49.490;10.908;2022-11-20T02:14:59;15.70;43.30
9446;DHT22;4761;49.490;10.908;2022-11-20T02:17:25;15.70;43.30
9446;DHT22;4761;49.490;10.908;2022-11-20T02:19:51;15.80;43.40
9446;DHT22;4761;49.490;10.908;2022-11-20T02:22:47;15.80;43.30
9446;DHT22;4761;49.490;10.908;2022-11-20T02:25:14;15.80;43.60
9446;DHT22;4761;49.490;10.908;2022-11-20T02:27:40;15.70;43.30
9446;DHT22;4761;49.490;10.908;2022-11-20T02:30:06;15.70;43.30
9446;DHT22;4761;49.490;10.908;2022-11-20T02:32:37;15.70;43.30
9446;DHT22;4761;49.490;10.908;2022-11-20T02:37:58;15.70;43.30
9446;DHT22;4761;49.490;10.908;2022-11-20T02:40:24;15.70;43.30
9446;DHT22;4761;49.490;10.908;2022-11-20T02:42:56;15.70;43.30
9446;DHT22;4761;49.490;10.908;2022-11-20T02:45:23;15.70;43.30
9446;DHT22;4761;49.490;10.908;2022-11-20T02:47:49;15.70;43.30
9446;DHT22;4761;49.490;10.908;2022-11-20T02:50:15;15.70;43.30
9446;DHT22;4761;49.490;10.908;2022-11-20T02:52:41;15.70;43.40
9446;DHT22;4761;49.490;10.908;2022-11-20T02:55:07;15.70;43.40
9446;DHT22;4761;49.490;10.908;2022-11-20T02:57:32;15.70;43.40
9446;DHT22;4761;49.490;10.908;2022-11-20T02:59:58;15.70;43.40
9446;DHT22;4761;49.490;10.908;2022-11-20T03:02:23;15.70;43.40
9446;DHT22;4761;49.490;10.908;2022-11-20T03:04:49;15.70;44.10
9446;DHT22;4761;49.490;10.908;2022-11-20T03:07:15;15.70;43.50
9446;DHT22;4761;49.490;10.908;2022-11-20T03:09:40;15.70;43.50
9446;DHT22;4761;49.490;10.908;2022-11-20T03:12:06;15.70;43.50
9446;DHT22;4761;49.490;10.908;2022-11-20T03:14:31;15.70;43.50
9446;DHT22;4761;49.490;10.908;2022-11-20T03:16:57;15.70;43.50
9446;DHT22;4761;49.490;10.908;2022-11-20T03:19:23;15.70;43.40
9446;DHT22;4761;49.490;10.908;2022-11-20T03:21:49;15.70;43.40
9446;DHT22;4761;49.490;10.908;2022-11-20T03:24:15;15.70;43.40
9446;DHT22;4761;49.490;10.908;2022-11-20T03:26:40;15.70;43.40
9446;DHT22;4761;49.490;10.908;2022-11-20T03:29:06;15.70;43.50
9446;DHT22;4761;49.490;10.908;2022-11-20T03:31:37;15.70;43.40
9446;DHT22;4761;49.490;10.908;2022-11-20T03:34:05;15.70;43.40
9446;DHT22;4761;49.490;10.908;2022-11-20T03:36:31;15.70;43.40
9446;DHT22;4761;49.490;10.908;2022-11-20T03:38:57;15.70;43.40
9446;DHT22;4761;49.490;10.908;2022-11-20T03:41:27;15.70;43.30
9446;DHT22;4761;49.490;10.908;2022-11-20T03:43:55;15.70;43.30
9446;DHT22;4761;49.490;10.908;2022-11-20T03:46:22;15.60;43.30
9446;DHT22;4761;49.490;10.908;2022-11-20T03:48:48;15.70;43.40
9446;DHT22;4761;49.490;10.908;2022-11-20T03:51:19;15.60;43.30
9446;DHT22;4761;49.490;10.908;2022-11-20T03:53:47;15.70;43.30
9446;DHT22;4761;49.490;10.908;2022-11-20T03:56:14;15.70;43.20
9446;DHT22;4761;49.490;10.908;2022-11-20T03:58:40;15.70;43.20
9446;DHT22;4761;49.490;10.908;2022-11-20T04:01:10;15.70;43.20
9446;DHT22;4761;49.490;10.908;2022-11-20T04:03:38;15.70;43.20
9446;DHT22;4761;49.490;10.908;2022-11-20T04:06:09;15.70;43.20
9446;DHT22;4761;49.490;10.908;2022-11-20T04:08:36;15.70;43.20
9446;DHT22;4761;49.490;10.908;2022-11-20T04:11:19;15.70;43.20
9446;DHT22;4761;49.490;10.908;2022-11-20T04:13:50;15.70;43.20
9446;DHT22;4761;49.490;10.908;2022-11-20T04:16:17;15.70;43.20
9446;DHT22;4761;49.490;10.908;2022-11-20T04:18:44;15.70;43.20
9446;DHT22;4761;49.490;10.908;2022-11-20T04:21:10;15.70;43.30
9446;DHT22;4761;49.490;10.908;2022-11-20T04:23:36;15.70;43.90
9446;DHT22;4761;49.490;10.908;2022-11-20T04:26:09;15.60;43.20
9446;DHT22;4761;49.490;10.908;2022-11-20T04:28:35;15.70;43.20
9446;DHT22;4761;49.490;10.908;2022-11-20T04:31:06;15.70;43.20
9446;DHT22;4761;49.490;10.908;2022-11-20T04:33:33;15.70;43.20
9446;DHT22;4761;49.490;10.908;2022-11-20T04:36:04;15.70;43.20
9446;DHT22;4761;49.490;10.908;2022-11-20T04:38:30;15.70;43.20
9446;DHT22;4761;49.490;10.908;2022-11-20T04:40:57;15.70;43.20
9446;DHT22;4761;49.490;10.908;2022-11-20T04:43:23;15.70;43.20
9446;DHT22;4761;49.490;10.908;2022-11-20T04:45:53;15.70;43.20
9446;DHT22;4761;49.490;10.908;2022-11-20T04:48:19;15.70;43.20
9446;DHT22;4761;49.490;10.908;2022-11-20T04:50:44;15.70;43.20
9446;DHT22;4761;49.490;10.908;2022-11-20T04:53:10;15.70;43.20
9446;DHT22;4761;49.490;10.908;2022-11-20T04:55:35;15.60;43.20
9446;DHT22;4761;49.490;10.908;2022-11-20T04:58:01;15.70;43.30
9446;DHT22;4761;49.490;10.908;2022-11-20T05:00:26;15.60;43.20
9446;DHT22;4761;49.490;10.908;2022-11-20T05:02:52;15.70;43.30
9446;DHT22;4761;49.490;10.908;2022-11-20T05:05:18;15.70;43.30
9446;DHT22;4761;49.490;10.908;2022-11-20T05:07:43;15.70;43.30
9446;DHT22;4761;49.490;10.908;2022-11-20T05:10:09;15.70;43.30
9446;DHT22;4761;49.490;10.908;2022-11-20T05:12:34;15.70;43.30
9446;DHT22;4761;49.490;10.908;2022-11-20T05:15:00;15.70;43.20
9446;DHT22;4761;49.490;10.908;2022-11-20T05:17:26;15.70;43.30
9446;DHT22;4761;49.490;10.908;2022-11-20T05:19:51;15.70;43.30
9446;DHT22;4761;49.490;10.908;2022-11-20T05:22:17;15.60;43.20
9446;DHT22;4761;49.490;10.908;2022-11-20T05:24:42;15.60;43.20
9446;DHT22;4761;49.490;10.908;2022-11-20T05:27:08;15.70;43.30
9446;DHT22;4761;49.490;10.908;2022-11-20T05:29:33;15.70;43.30
9446;DHT22;4761;49.490;10.908;2022-11-20T05:31:59;15.60;43.20
9446;DHT22;4761;49.490;10.908;2022-11-20T05:34:24;15.70;43.30
9446;DHT22;4761;49.490;10.908;2022-11-20T05:36:50;15.70;43.20
9446;DHT22;4761;49.490;10.908;2022-11-20T05:39:15;15.70;43.20
9446;DHT22;4761;49.490;10.908;2022-11-20T05:41:41;15.60;43.20
9446;DHT22;4761;49.490;10.908;2022-11-20T05:44:06;15.60;43.20
9446;DHT22;4761;49.490;10.908;2022-11-20T05:46:32;15.60;43.20
9446;DHT22;4761;49.490;10.908;2022-11-20T05:48:58;15.70;43.20
9446;DHT22;4761;49.490;10.908;2022-11-20T05:51:25;15.70;43.20
9446;DHT22;4761;49.490;10.908;2022-11-20T05:53:50;15.70;43.10
9446;DHT22;4761;49.490;10.908;2022-11-20T05:56:18;15.60;43.10
9446;DHT22;4761;49.490;10.908;2022-11-20T05:58:44;15.60;43.10
9446;DHT22;4761;49.490;10.908;2022-11-20T06:01:22;15.70;43.20
9446;DHT22;4761;49.490;10.908;2022-11-20T06:03:48;15.70;43.20
9446;DHT22;4761;49.490;10.908;2022-11-20T06:06:16;15.60;43.10
9446;DHT22;4761;49.490;10.908;2022-11-20T06:08:43;15.60;43.10
9446;DHT22;4761;49.490;10.908;2022-11-20T06:11:10;15.60;43.20
9446;DHT22;4761;49.490;10.908;2022-11-20T06:13:37;15.60;43.20
9446;DHT22;4761;49.490;10.908;2022-11-20T06:16:03;15.60;43.20
9446;DHT22;4761;49.490;10.908;2022-11-20T06:18:29;15.60;43.20
9446;DHT22;4761;49.490;10.908;2022-11-20T06:21:03;15.70;43.20
9446;DHT22;4761;49.490;10.908;2022-11-20T06:23:30;15.60;43.10
9446;DHT22;4761;49.490;10.908;2022-11-20T06:25:56;15.70;43.20
9446;DHT22;4761;49.490;10.908;2022-11-20T06:28:21;15.70;43.10
9446;DHT22;4761;49.490;10.908;2022-11-20T06:30:47;15.70;43.00
9446;DHT22;4761;49.490;10.908;2022-11-20T06:33:13;15.70;43.00
9446;DHT22;4761;49.490;10.908;2022-11-20T06:35:38;15.70;43.10
9446;DHT22;4761;49.490;10.908;2022-11-20T06:38:04;15.70;43.10
9446;DHT22;4761;49.490;10.908;2022-11-20T06:40:29;15.70;43.10
9446;DHT22;4761;49.490;10.908;2022-11-20T06:42:55;15.60;43.10
9446;DHT22;4761;49.490;10.908;2022-11-20T06:45:21;15.60;43.10
9446;DHT22;4761;49.490;10.908;2022-11-20T06:47:46;15.60;43.20
9446;DHT22;4761;49.490;10.908;2022-11-20T06:50:12;15.60;43.10
9446;DHT22;4761;49.490;10.908;2022-11-20T06:52:38;15.70;43.20
9446;DHT22;4761;49.490;10.908;2022-11-20T06:55:04;15.70;43.20
9446;DHT22;4761;49.490;10.908;2022-11-20T06:57:30;15.60;43.10
9446;DHT22;4761;49.490;10.908;2022-11-20T06:59:55;15.70;43.20
9446;DHT22;4761;49.490;10.908;2022-11-20T07:02:21;15.70;43.10
9446;DHT22;4761;49.490;10.908;2022-11-20T07:04:46;15.60;43.10
9446;DHT22;4761;49.490;10.908;2022-11-20T07:07:12;15.60;43.10
9446;DHT22;4761;49.490;10.908;2022-11-20T07:09:37;15.60;43.20
9446;DHT22;4761;49.490;10.908;2022-11-20T07:12:03;15.60;43.10
9446;DHT22;4761;49.490;10.908;2022-11-20T07:14:28;15.60;43.20
9446;DHT22;4761;49.490;10.908;2022-11-20T07:16:54;15.60;43.10
9446;DHT22;4761;49.490;10.908;2022-11-20T07:19:20;15.60;43.00
9446;DHT22;4761;49.490;10.908;2022-11-20T07:21:45;15.50;41.10
9446;DHT22;4761;49.490;10.908;2022-11-20T07:24:11;15.40;40.80
9446;DHT22;4761;49.490;10.908;2022-11-20T07:26:36;15.40;40.90
9446;DHT22;4761;49.490;10.908;2022-11-20T07:29:02;15.50;41.20
9446;DHT22;4761;49.490;10.908;2022-11-20T07:31:27;15.50;41.40
9446;DHT22;4761;49.490;10.908;2022-11-20T07:33:53;15.60;41.40
9446;DHT22;4761;49.490;10.908;2022-11-20T07:36:18;15.70;41.30
9446;DHT22;4761;49.490;10.908;2022-11-20T07:38:44;15.80;41.20
9446;DHT22;4761;49.490;10.908;2022-11-20T07:41:09;15.90;41.00
9446;DHT22;4761;49.490;10.908;2022-11-20T07:43:35;15.90;40.60
9446;DHT22;4761;49.490;10.908;2022-11-20T07:46:00;16.00;40.50
9446;DHT22;4761;49.490;10.908;2022-11-20T07:48:26;16.10;40.20
9446;DHT22;4761;49.490;10.908;2022-11-20T07:50:56;16.20;40.00
9446;DHT22;4761;49.490;10.908;2022-11-20T07:53:22;16.20;39.70
9446;DHT22;4761;49.490;10.908;2022-11-20T07:55:48;16.30;39.50
9446;DHT22;4761;49.490;10.908;2022-11-20T07:58:14;16.40;39.40
9446;DHT22;4761;49.490;10.908;2022-11-20T08:00:40;16.40;39.20
9446;DHT22;4761;49.490;10.908;2022-11-20T08:03:06;16.50;39.10
9446;DHT22;4761;49.490;10.908;2022-11-20T08:05:32;16.50;38.90
9446;DHT22;4761;49.490;10.908;2022-11-20T08:07:57;16.60;38.80
9446;DHT22;4761;49.490;10.908;2022-11-20T08:10:23;16.60;38.60
9446;DHT22;4761;49.490;10.908;2022-11-20T08:12:50;16.60;38.50
9446;DHT22;4761;49.490;10.908;2022-11-20T08:15:36;16.70;38.40
9446;DHT22;4761;49.490;10.908;2022-11-20T08:18:03;16.60;38.10
9446;DHT22;4761;49.490;10.908;2022-11-20T08:20:29;16.70;38.00
9446;DHT22;4761;49.490;10.908;2022-11-20T08:23:02;16.70;37.90
9446;DHT22;4761;49.490;10.908;2022-11-20T08:25:29;16.80;37.90
9446;DHT22;4761;49.490;10.908;2022-11-20T08:28:00;16.80;37.80
9446;DHT22;4761;49.490;10.908;2022-11-20T08:30:26;16.80;37.60
9446;DHT22;4761;49.490;10.908;2022-11-20T08:32:52;16.80;37.50
9446;DHT22;4761;49.490;10.908;2022-11-20T08:35:18;16.80;37.50
9446;DHT22;4761;49.490;10.908;2022-11-20T08:37:49;16.80;37.40
9446;DHT22;4761;49.490;10.908;2022-11-20T08:40:15;16.80;37.30
9446;DHT22;4761;49.490;10.908;2022-11-20T08:42:48;16.90;37.30
9446;DHT22;4761;49.490;10.908;2022-11-20T08:45:14;16.90;37.20
9446;DHT22;4761;49.490;10.908;2022-11-20T08:47:40;16.90;37.20
9446;DHT22;4761;49.490;10.908;2022-11-20T08:50:06;16.90;37.20
9446;DHT22;4761;49.490;10.908;2022-11-20T08:52:32;16.90;37.10
9446;DHT22;4761;49.490;10.908;2022-11-20T08:54:57;16.90;37.00
9446;DHT22;4761;49.490;10.908;2022-11-20T08:57:23;16.90;37.00
9446;DHT22;4761;49.490;10.908;2022-11-20T08:59:48;16.90;37.00
9446;DHT22;4761;49.490;10.908;2022-11-20T09:02:14;16.90;36.90
9446;DHT22;4761;49.490;10.908;2022-11-20T09:04:40;17.10;39.60
9446;DHT22;4761;49.490;10.908;2022-11-20T09:07:06;17.00;39.70
9446;DHT22;4761;49.490;10.908;2022-11-20T09:09:31;16.90;40.00
9446;DHT22;4761;49.490;10.908;2022-11-20T09:11:58;16.70;40.30
9446;DHT22;4761;49.490;10.908;2022-11-20T09:14:23;16.50;40.80
9446;DHT22;4761;49.490;10.908;2022-11-20T09:16:54;16.40;40.90
9446;DHT22;4761;49.490;10.908;2022-11-20T09:19:20;16.20;41.20
9446;DHT22;4761;49.490;10.908;2022-11-20T09:21:45;16.10;41.40
9446;DHT22;4761;49.490;10.908;2022-11-20T09:24:11;16.10;41.70
9446;DHT22;4761;49.490;10.908;2022-11-20T09:26:37;16.00;41.80
9446;DHT22;4761;49.490;10.908;2022-11-20T09:29:02;15.90;41.90
9446;DHT22;4761;49.490;10.908;2022-11-20T09:31:28;15.90;42.10
9446;DHT22;4761;49.490;10.908;2022-11-20T09:33:53;15.80;42.70
9446;DHT22;4761;49.490;10.908;2022-11-20T09:36:19;15.90;42.90
9446;DHT22;4761;49.490;10.908;2022-11-20T09:38:46;15.80;42.70
9446;DHT22;4761;49.490;10.908;2022-11-20T09:47:02;15.70;42.80
9446;DHT22;4761;49.490;10.908;2022-11-20T09:49:35;15.70;42.90
9446;DHT22;4761;49.490;10.908;2022-11-20T09:52:23;15.70;43.00
9446;DHT22;4761;49.490;10.908;2022-11-20T09:54:52;15.60;43.00
9446;DHT22;4761;49.490;10.908;2022-11-20T09:57:22;15.60;43.00
9446;DHT22;4761;49.490;10.908;2022-11-20T09:59:56;15.60;43.10
9446;DHT22;4761;49.490;10.908;2022-11-20T10:05:17;15.60;43.20
9446;DHT22;4761;49.490;10.908;2022-11-20T10:10:36;15.60;43.20
9446;DHT22;4761;49.490;10.908;2022-11-20T10:27:02;15.70;43.20
9446;DHT22;4761;49.490;10.908;2022-11-20T10:29:33;15.70;43.20
9446;DHT22;4761;49.490;10.908;2022-11-20T10:32:04;15.70;43.20
9446;DHT22;4761;49.490;10.908;2022-11-20T10:34:50;15.70;43.20
9446;DHT22;4761;49.490;10.908;2022-11-20T10:37:23;15.70;43.20
9446;DHT22;4761;49.490;10.908;2022-11-20T10:43:15;15.70;43.30
9446;DHT22;4761;49.490;10.908;2022-11-20T10:48:25;15.60;43.30
9446;DHT22;4761;49.490;10.908;2022-11-20T10:51:06;15.70;43.40
9446;DHT22;4761;49.490;10.908;2022-11-20T10:53:44;15.60;43.30
9446;DHT22;4761;49.490;10.908;2022-11-20T10:59:32;15.60;43.40
9446;DHT22;4761;49.490;10.908;2022-11-20T11:02:00;15.70;44.00
9446;DHT22;4761;49.490;10.908;2022-11-20T11:04:40;15.70;43.40
9446;DHT22;4761;49.490;10.908;2022-11-20T11:09:53;15.70;43.30
9446;DHT22;4761;49.490;10.908;2022-11-20T11:12:24;15.70;43.30
9446;DHT22;4761;49.490;10.908;2022-11-20T11:14:55;15.70;43.40
9446;DHT22;4761;49.490;10.908;2022-11-20T11:17:28;15.60;43.30
9446;DHT22;4761;49.490;10.908;2022-11-20T11:22:50;15.60;43.40
9446;DHT22;4761;49.490;10.908;2022-11-20T11:25:36;15.60;43.50
9446;DHT22;4761;49.490;10.908;2022-11-20T11:28:19;15.60;43.50
9446;DHT22;4761;49.490;10.908;2022-11-20T11:30:46;15.60;43.50
9446;DHT22;4761;49.490;10.908;2022-11-20T11:33:30;15.60;43.50
9446;DHT22;4761;49.490;10.908;2022-11-20T11:36:01;15.60;43.50
9446;DHT22;4761;49.490;10.908;2022-11-20T11:38:35;15.60;43.50
9446;DHT22;4761;49.490;10.908;2022-11-20T11:41:02;15.50;43.40
9446;DHT22;4761;49.490;10.908;2022-11-20T11:43:34;15.50;43.40
9446;DHT22;4761;49.490;10.908;2022-11-20T11:49:11;15.50;43.40
9446;DHT22;4761;49.490;10.908;2022-11-20T11:54:36;15.60;43.50
9446;DHT22;4761;49.490;10.908;2022-11-20T11:57:20;15.60;43.60
9446;DHT22;4761;49.490;10.908;2022-11-20T12:04:57;15.60;43.70
9446;DHT22;4761;49.490;10.908;2022-11-20T12:07:38;15.60;43.70
9446;DHT22;4761;49.490;10.908;2022-11-20T12:10:56;15.60;43.70
9446;DHT22;4761;49.490;10.908;2022-11-20T12:13:02;15.60;43.70
9446;DHT22;4761;49.490;10.908;2022-11-20T12:15:31;15.60;43.80
9446;DHT22;4761;49.490;10.908;2022-11-20T12:17:57;15.60;43.50
9446;DHT22;4761;49.490;10.908;2022-11-20T12:20:28;15.50;43.20
9446;DHT22;4761;49.490;10.908;2022-11-20T12:25:31;15.50;43.60
9446;DHT22;4761;49.490;10.908;2022-11-20T12:30:32;15.60;44.10
9446;DHT22;4761;49.490;10.908;2022-11-20T12:36:22;15.80;44.30
9446;DHT22;4761;49.490;10.908;2022-11-20T12:55:15;16.40;43.90
9446;DHT22;4761;49.490;10.908;2022-11-20T12:57:52;16.40;43.80
9446;DHT22;4761;49.490;10.908;2022-11-20T13:00:23;16.50;43.70
9446;DHT22;4761;49.490;10.908;2022-11-20T13:03:23;16.70;43.40
9446;DHT22;4761;49.490;10.908;2022-11-20T13:06:05;16.70;42.10
9446;DHT22;4761;49.490;10.908;2022-11-20T13:08:38;16.70;41.80
9446;DHT22;4761;49.490;10.908;2022-11-20T13:11:18;16.70;41.80
9446;DHT22;4761;49.490;10.908;2022-11-20T13:19:12;16.70;42.20
9446;DHT22;4761;49.490;10.908;2022-11-20T13:21:47;16.70;42.50
9446;DHT22;4761;49.490;10.908;2022-11-20T13:27:18;16.70;42.80
9446;DHT22;4761;49.490;10.908;2022-11-20T13:29:46;16.80;43.60
9446;DHT22;4761;49.490;10.908;2022-11-20T13:32:17;16.80;43.00
9446;DHT22;4761;49.490;10.908;2022-11-20T13:34:53;16.80;43.10
9446;DHT22;4761;49.490;10.908;2022-11-20T13:37:37;16.90;43.10
9446;DHT22;4761;49.490;10.908;2022-11-20T13:45:23;16.90;43.10
9446;DHT22;4761;49.490;10.908;2022-11-20T13:47:50;16.90;43.10
9446;DHT22;4761;49.490;10.908;2022-11-20T13:50:16;16.90;43.10
9446;DHT22;4761;49.490;10.908;2022-11-20T13:52:52;16.90;43.10
9446;DHT22;4761;49.490;10.908;2022-11-20T13:55:40;16.90;43.10
9446;DHT22;4761;49.490;10.908;2022-11-20T13:58:44;16.90;43.10
9446;DHT22;4761;49.490;10.908;2022-11-20T14:01:20;16.90;43.10
9446;DHT22;4761;49.490;10.908;2022-11-20T14:03:47;16.90;43.50
9446;DHT22;4761;49.490;10.908;2022-11-20T14:08:48;17.00;43.30
9446;DHT22;4761;49.490;10.908;2022-11-20T14:16:36;17.00;43.40
9446;DHT22;4761;49.490;10.908;2022-11-20T14:19:28;17.00;43.40
9446;DHT22;4761;49.490;10.908;2022-11-20T14:22:17;17.00;43.40
9446;DHT22;4761;49.490;10.908;2022-11-20T14:24:44;17.00;43.50
9446;DHT22;4761;49.490;10.908;2022-11-20T14:27:16;16.90;43.40
9446;DHT22;4761;49.490;10.908;2022-11-20T14:29:45;16.90;43.40
9446;DHT22;4761;49.490;10.908;2022-11-20T14:32:11;17.00;43.60
9446;DHT22;4761;49.490;10.908;2022-11-20T14:34:41;17.00;43.50
9446;DHT22;4761;49.490;10.908;2022-11-20T14:37:20;17.00;43.50
9446;DHT22;4761;49.490;10.908;2022-11-20T14:39:53;17.00;43.40
9446;DHT22;4761;49.490;10.908;2022-11-20T14:42:24;17.00;43.50
9446;DHT22;4761;49.490;10.908;2022-11-20T14:44:52;17.00;43.50
9446;DHT22;4761;49.490;10.908;2022-11-20T14:47:23;17.00;43.60
9446;DHT22;4761;49.490;10.908;2022-11-20T14:49:51;17.00;43.50
9446;DHT22;4761;49.490;10.908;2022-11-20T14:52:20;17.00;43.50
9446;DHT22;4761;49.490;10.908;2022-11-20T14:55:13;17.10;43.60
9446;DHT22;4761;49.490;10.908;2022-11-20T14:57:39;17.10;43.60
9446;DHT22;4761;49.490;10.908;2022-11-20T15:02:41;17.10;43.60
9446;DHT22;4761;49.490;10.908;2022-11-20T15:05:07;17.20;42.10
9446;DHT22;4761;49.490;10.908;2022-11-20T15:07:39;17.10;42.00
9446;DHT22;4761;49.490;10.908;2022-11-20T15:10:12;17.00;42.20
9446;DHT22;4761;49.490;10.908;2022-11-20T15:12:45;16.90;42.40
9446;DHT22;4761;49.490;10.908;2022-11-20T15:15:15;16.70;42.70
9446;DHT22;4761;49.490;10.908;2022-11-20T15:17:42;16.60;43.10
9446;DHT22;4761;49.490;10.908;2022-11-20T15:20:15;16.50;43.30
9446;DHT22;4761;49.490;10.908;2022-11-20T15:22:41;16.40;43.40
9446;DHT22;4761;49.490;10.908;2022-11-20T15:25:15;16.30;43.60
9446;DHT22;4761;49.490;10.908;2022-11-20T15:27:42;16.30;43.80
9446;DHT22;4761;49.490;10.908;2022-11-20T15:30:19;16.20;43.90
9446;DHT22;4761;49.490;10.908;2022-11-20T15:32:45;16.10;44.10
9446;DHT22;4761;49.490;10.908;2022-11-20T15:35:12;16.00;44.30
9446;DHT22;4761;49.490;10.908;2022-11-20T15:37:38;16.00;44.40
9446;DHT22;4761;49.490;10.908;2022-11-20T15:40:05;16.00;44.50
9446;DHT22;4761;49.490;10.908;2022-11-20T15:42:31;16.00;44.50
9446;DHT22;4761;49.490;10.908;2022-11-20T15:44:56;16.00;44.50
9446;DHT22;4761;49.490;10.908;2022-11-20T15:47:28;15.90;44.50
9446;DHT22;4761;49.490;10.908;2022-11-20T15:49:54;15.90;44.60
9446;DHT22;4761;49.490;10.908;2022-11-20T15:52:20;15.90;44.70
9446;DHT22;4761;49.490;10.908;2022-11-20T15:54:45;15.90;44.80
9446;DHT22;4761;49.490;10.908;2022-11-20T15:57:11;15.80;44.80
9446;DHT22;4761;49.490;10.908;2022-11-20T15:59:38;15.80;44.90
9446;DHT22;4761;49.490;10.908;2022-11-20T16:02:13;15.80;45.00
9446;DHT22;4761;49.490;10.908;2022-11-20T16:04:39;15.80;45.10
9446;DHT22;4761;49.490;10.908;2022-11-20T16:07:05;15.80;45.10
9446;DHT22;4761;49.490;10.908;2022-11-20T16:09:30;15.80;45.10
9446;DHT22;4761;49.490;10.908;2022-11-20T16:11:56;15.80;45.10
9446;DHT22;4761;49.490;10.908;2022-11-20T16:14:25;15.80;45.10
9446;DHT22;4761;49.490;10.908;2022-11-20T16:17:09;15.70;45.10
9446;DHT22;4761;49.490;10.908;2022-11-20T16:19:34;15.70;45.10
9446;DHT22;4761;49.490;10.908;2022-11-20T16:22:00;15.70;45.20
9446;DHT22;4761;49.490;10.908;2022-11-20T16:24:26;15.70;45.20
9446;DHT22;4761;49.490;10.908;2022-11-20T16:26:53;15.70;45.20
9446;DHT22;4761;49.490;10.908;2022-11-20T16:29:19;15.70;45.20
9446;DHT22;4761;49.490;10.908;2022-11-20T16:31:44;15.70;45.20
9446;DHT22;4761;49.490;10.908;2022-11-20T16:34:10;15.70;45.20
9446;DHT22;4761;49.490;10.908;2022-11-20T16:36:35;15.70;45.20
9446;DHT22;4761;49.490;10.908;2022-11-20T16:39:04;15.70;45.20
9446;DHT22;4761;49.490;10.908;2022-11-20T16:41:32;15.70;45.20
9446;DHT22;4761;49.490;10.908;2022-11-20T16:44:00;15.70;45.20
9446;DHT22;4761;49.490;10.908;2022-11-20T16:46:28;15.70;45.20
9446;DHT22;4761;49.490;10.908;2022-11-20T16:49:04;15.70;45.20
9446;DHT22;4761;49.490;10.908;2022-11-20T16:51:33;15.70;45.20
9446;DHT22;4761;49.490;10.908;2022-11-20T16:54:01;15.70;45.80
9446;DHT22;4761;49.490;10.908;2022-11-20T16:56:27;15.70;45.30
9446;DHT22;4761;49.490;10.908;2022-11-20T16:58:56;15.70;45.20
9446;DHT22;4761;49.490;10.908;2022-11-20T17:01:23;15.70;45.20
9446;DHT22;4761;49.490;10.908;2022-11-20T17:04:03;15.70;45.10
9446;DHT22;4761;49.490;10.908;2022-11-20T17:06:31;15.70;45.10
9446;DHT22;4761;49.490;10.908;2022-11-20T17:08:57;15.70;45.50
9446;DHT22;4761;49.490;10.908;2022-11-20T17:11:24;15.70;45.30
9446;DHT22;4761;49.490;10.908;2022-11-20T17:13:50;15.70;45.30
9446;DHT22;4761;49.490;10.908;2022-11-20T17:16:20;15.70;45.20
9446;DHT22;4761;49.490;10.908;2022-11-20T17:18:46;15.60;45.00
9446;DHT22;4761;49.490;10.908;2022-11-20T17:21:14;15.60;45.00
9446;DHT22;4761;49.490;10.908;2022-11-20T17:23:41;15.60;44.80
9446;DHT22;4761;49.490;10.908;2022-11-20T17:26:10;15.60;44.80
9446;DHT22;4761;49.490;10.908;2022-11-20T17:28:37;15.60;44.70
9446;DHT22;4761;49.490;10.908;2022-11-20T17:31:05;15.60;44.60
9446;DHT22;4761;49.490;10.908;2022-11-20T17:33:32;15.60;44.60
9446;DHT22;4761;49.490;10.908;2022-11-20T17:35:58;15.60;44.60
9446;DHT22;4761;49.490;10.908;2022-11-20T17:38:23;15.60;44.50
9446;DHT22;4761;49.490;10.908;2022-11-20T17:40:49;15.60;44.40